createdAt,value
2023-01-10T00:01:19.019Z,15.57
2023-01-10T00:03:45.673Z,13.53
2023-01-10T00:06:24.205Z,12.50
2023-01-10T00:08:57.411Z,15.40
2023-01-10T00:11:58.496Z,13.87
2023-01-10T00:14:41.400Z,13.40
2023-01-10T00:17:08.197Z,9.73
2023-01-10T00:19:34.986Z,12.03
2023-01-10T00:22:12.286Z,11.97
2023-01-10T00:24:45.321Z,14.00
2023-01-10T00:27:19.279Z,9.80
2023-01-10T00:29:47.028Z,13.80
2023-01-10T00:32:20.351Z,14.63
2023-01-10T00:34:53.410Z,14.30
2023-01-10T00:37:26.287Z,12.63
2023-01-10T00:39:59.402Z,11.87
2023-01-10T00:42:51.567Z,10.10
2023-01-10T00:45:20.040Z,8.50
2023-01-10T00:47:53.379Z,13.23
2023-01-10T00:50:20.145Z,11.33
2023-01-10T00:52:53.284Z,10.53
2023-01-10T00:55:19.985Z,9.77
2023-01-10T00:57:53.271Z,11.27
2023-01-10T01:00:26.313Z,10.40
2023-01-10T01:02:53.103Z,10.57
2023-01-10T01:05:26.283Z,8.93
2023-01-10T01:07:53.317Z,14.33
2023-01-10T01:10:35.358Z,9.20
2023-01-10T01:13:21.126Z,10.83
2023-01-10T01:15:58.607Z,13.57
2023-01-10T01:18:26.048Z,14.53
2023-01-10T01:21:09.688Z,9.57
2023-01-10T01:23:36.565Z,18.27
2023-01-10T01:26:10.892Z,14.47
2023-01-10T01:28:38.195Z,10.27
2023-01-10T01:31:19.582Z,9.20
2023-01-10T01:33:46.824Z,9.23
2023-01-10T01:36:20.363Z,16.33
2023-01-10T01:38:46.971Z,11.00
2023-01-10T01:41:44.359Z,11.47
2023-01-10T01:44:23.417Z,11.67
2023-01-10T01:47:34.441Z,12.53
2023-01-10T01:50:08.421Z,13.10
2023-01-10T01:52:37.480Z,8.50
2023-01-10T01:55:12.402Z,11.10
2023-01-10T01:57:42.831Z,13.43
2023-01-10T02:00:17.494Z,9.77
2023-01-10T02:03:02.216Z,10.87
2023-01-10T02:05:40.499Z,10.83
2023-01-10T02:08:07.207Z,12.73
2023-01-10T02:11:04.567Z,20.43
2023-01-10T02:13:40.660Z,13.47
2023-01-10T02:16:26.069Z,9.30
2023-01-10T02:18:59.480Z,7.63
2023-01-10T02:21:47.541Z,9.23
2023-01-10T02:24:39.418Z,10.57
2023-01-10T02:27:32.457Z,14.80
2023-01-10T02:30:44.570Z,16.37
2023-01-10T02:33:34.365Z,10.67
2023-01-10T02:36:31.602Z,7.63
2023-01-10T02:39:12.383Z,12.33
2023-01-10T02:42:00.381Z,11.13
2023-01-10T02:44:36.035Z,14.03
2023-01-10T02:47:10.298Z,11.53
2023-01-10T02:49:49.035Z,8.57
2023-01-10T02:52:28.420Z,12.00
2023-01-10T02:55:08.355Z,9.80
2023-01-10T02:58:03.317Z,9.93
2023-01-10T03:00:42.273Z,11.70
2023-01-10T03:03:42.412Z,10.90
2023-01-10T03:06:25.207Z,11.53
2023-01-10T03:09:05.509Z,11.87
2023-01-10T03:11:51.477Z,9.90
2023-01-10T03:14:38.900Z,8.83
2023-01-10T03:17:17.397Z,7.63
2023-01-10T03:19:50.250Z,11.13
2023-01-10T03:22:24.416Z,10.57
2023-01-10T03:24:54.624Z,9.63
2023-01-10T03:27:46.474Z,9.80
2023-01-10T03:30:20.109Z,13.40
2023-01-10T03:32:53.382Z,13.37
2023-01-10T03:35:23.391Z,11.17
2023-01-10T03:38:04.524Z,10.17
2023-01-10T03:41:01.910Z,9.87
2023-01-10T03:44:06.441Z,6.33
2023-01-10T03:46:44.366Z,10.67
2023-01-10T03:49:20.366Z,8.77
2023-01-10T03:51:55.398Z,12.07
2023-01-10T03:54:22.093Z,8.20
2023-01-10T03:56:58.448Z,11.63
2023-01-10T03:59:27.516Z,10.03
2023-01-10T04:02:02.742Z,9.63
2023-01-10T04:04:36.527Z,13.20
2023-01-10T04:07:13.015Z,12.10
2023-01-10T04:09:40.119Z,11.53
2023-01-10T04:12:13.509Z,7.87
2023-01-10T04:14:53.493Z,11.37
2023-01-10T04:17:27.525Z,10.77
2023-01-10T04:20:01.473Z,8.77
2023-01-10T04:22:34.505Z,12.77
2023-01-10T04:25:01.412Z,8.87
2023-01-10T04:27:34.436Z,9.20
2023-01-10T04:30:07.383Z,10.87
2023-01-10T04:32:40.563Z,10.60
2023-01-10T04:35:14.708Z,7.53
2023-01-10T04:37:41.507Z,9.27
2023-01-10T04:40:15.427Z,8.37
2023-01-10T04:42:48.515Z,8.43
2023-01-10T04:45:24.401Z,10.57
2023-01-10T04:47:52.185Z,12.50
2023-01-10T04:50:25.398Z,12.27
2023-01-10T04:52:52.845Z,13.47
2023-01-10T04:55:26.386Z,11.43
2023-01-10T04:57:53.232Z,14.23
2023-01-10T05:00:26.515Z,8.23
2023-01-10T05:03:03.046Z,11.00
2023-01-10T05:05:37.568Z,13.47
2023-01-10T05:08:11.424Z,14.30
2023-01-10T05:10:38.498Z,15.10
2023-01-10T05:13:18.513Z,13.07
2023-01-10T05:15:54.990Z,10.03
2023-01-10T05:18:28.468Z,12.50
2023-01-10T05:21:16.102Z,10.50
2023-01-10T05:23:50.396Z,13.67
2023-01-10T05:26:35.831Z,16.53
2023-01-10T05:29:02.579Z,15.93
2023-01-10T05:31:44.268Z,12.10
2023-01-10T05:34:20.447Z,13.07
2023-01-10T05:36:47.379Z,13.77
2023-01-10T05:39:20.455Z,13.63
2023-01-10T05:41:54.385Z,12.93
2023-01-10T05:44:27.465Z,11.23
2023-01-10T05:46:57.282Z,14.60
2023-01-10T05:49:30.465Z,15.93
2023-01-10T05:51:57.129Z,16.83
2023-01-10T05:54:30.668Z,8.97
2023-01-10T05:57:05.059Z,11.80
2023-01-10T05:59:38.557Z,12.07
2023-01-10T06:02:13.549Z,13.87
2023-01-10T06:04:40.939Z,18.77
2023-01-10T06:07:14.495Z,15.07
2023-01-10T06:09:41.351Z,16.40
2023-01-10T06:12:14.631Z,18.37
2023-01-10T06:14:47.792Z,14.63
2023-01-10T06:17:24.478Z,14.93
2023-01-10T06:19:52.579Z,17.80
2023-01-10T06:22:25.491Z,14.80
2023-01-10T06:24:58.639Z,12.40
2023-01-10T06:27:25.808Z,16.97
2023-01-10T06:29:59.507Z,15.50
2023-01-10T06:32:26.308Z,11.83
2023-01-10T06:35:00.484Z,16.27
2023-01-10T06:37:27.168Z,20.33
2023-01-10T06:40:00.431Z,15.30
2023-01-10T06:42:27.341Z,20.17
2023-01-10T06:45:00.458Z,18.80
2023-01-10T06:47:33.569Z,16.07
2023-01-10T06:50:06.690Z,15.57
2023-01-10T06:52:40.420Z,14.27
2023-01-10T06:55:14.512Z,16.07
2023-01-10T06:57:47.435Z,17.47
2023-01-10T07:00:14.877Z,13.23
2023-01-10T07:02:48.516Z,18.77
2023-01-10T07:05:15.423Z,15.07
2023-01-10T07:07:48.491Z,16.53
2023-01-10T07:10:18.708Z,16.10
2023-01-10T07:12:51.608Z,16.83
2023-01-10T07:15:25.677Z,16.50
2023-01-10T07:17:58.609Z,15.77
2023-01-10T07:20:26.038Z,13.57
2023-01-10T07:23:04.596Z,18.97
2023-01-10T07:25:37.579Z,16.67
2023-01-10T07:28:12.511Z,18.93
2023-01-10T07:30:39.262Z,14.27
2023-01-10T07:33:13.445Z,14.97
2023-01-10T07:35:46.811Z,14.33
2023-01-10T07:38:20.543Z,14.40
2023-01-10T07:40:53.406Z,17.50
2023-01-10T07:43:20.201Z,14.87
2023-01-10T07:45:47.512Z,17.60
2023-01-10T07:48:20.423Z,18.50
2023-01-10T07:50:57.170Z,19.43
2023-01-10T07:53:24.638Z,14.87
2023-01-10T07:55:57.553Z,19.53
2023-01-10T07:58:30.576Z,20.97
2023-01-10T08:01:01.505Z,16.40
2023-01-10T08:03:30.145Z,15.47
2023-01-10T08:06:16.715Z,20.93
2023-01-10T08:08:50.532Z,20.10
2023-01-10T08:11:31.899Z,16.80
2023-01-10T08:14:11.468Z,18.33
2023-01-10T08:16:45.909Z,19.27
2023-01-10T08:19:23.628Z,16.70
2023-01-10T08:21:50.430Z,23.20
2023-01-10T08:24:23.445Z,17.53
2023-01-10T08:26:50.383Z,18.90
2023-01-10T08:29:23.555Z,18.53
2023-01-10T08:31:54.449Z,21.47
2023-01-10T08:34:43.338Z,18.80
2023-01-10T08:37:22.967Z,15.47
2023-01-10T08:39:56.658Z,22.20
2023-01-10T08:42:23.536Z,22.50
2023-01-10T08:44:56.775Z,14.83
2023-01-10T08:47:24.089Z,15.30
2023-01-10T08:49:57.778Z,16.03
2023-01-10T08:52:24.388Z,20.70
2023-01-10T08:54:57.574Z,17.60
2023-01-10T08:57:34.184Z,17.30
2023-01-10T09:00:07.590Z,16.83
2023-01-10T09:02:40.846Z,16.10
2023-01-10T09:05:26.433Z,11.50
2023-01-10T09:08:04.640Z,19.37
2023-01-10T09:10:37.552Z,17.83
2023-01-10T09:13:17.508Z,19.77
2023-01-10T09:15:48.280Z,16.33
2023-01-10T09:18:21.610Z,22.53
2023-01-10T09:20:54.535Z,14.53
2023-01-10T09:23:29.571Z,17.30
2023-01-10T09:25:58.058Z,15.37
2023-01-10T09:28:31.596Z,20.97
2023-01-10T09:31:02.132Z,14.87
2023-01-10T09:33:46.263Z,14.23
2023-01-10T09:36:16.205Z,15.80
2023-01-10T09:38:50.547Z,14.90
2023-01-10T09:41:27.503Z,20.20
2023-01-10T09:44:25.537Z,16.77
2023-01-10T09:47:22.947Z,18.83
2023-01-10T09:50:30.501Z,19.13
2023-01-10T09:53:05.936Z,17.63
2023-01-10T09:55:42.701Z,15.77
2023-01-10T09:58:23.501Z,14.57
2023-01-10T10:01:04.657Z,19.83
2023-01-10T10:03:46.254Z,15.47
2023-01-10T10:06:23.571Z,16.77
2023-01-10T10:08:52.293Z,17.20
2023-01-10T10:11:41.871Z,18.20
2023-01-10T10:14:45.614Z,14.77
2023-01-10T10:17:34.504Z,18.03
2023-01-10T10:20:34.718Z,14.13
2023-01-10T10:23:45.902Z,15.87
2023-01-10T10:27:03.590Z,18.70
2023-01-10T10:30:04.567Z,13.83
2023-01-10T10:32:54.401Z,10.20
2023-01-10T10:35:43.595Z,16.57
2023-01-10T10:38:38.665Z,17.70
2023-01-10T10:41:25.734Z,14.20
2023-01-10T10:44:01.729Z,12.00
2023-01-10T10:46:38.848Z,13.67
2023-01-10T10:49:33.879Z,13.77
2023-01-10T10:52:11.553Z,16.07
2023-01-10T10:54:42.124Z,18.37
2023-01-10T10:57:17.640Z,15.40
2023-01-10T10:59:47.982Z,12.50
2023-01-10T11:02:31.664Z,15.93
2023-01-10T11:05:05.634Z,20.83
2023-01-10T11:07:43.671Z,16.73
2023-01-10T11:10:37.075Z,19.97
2023-01-10T11:13:21.612Z,14.50
2023-01-10T11:16:04.084Z,11.27
2023-01-10T11:18:37.665Z,15.33
2023-01-10T11:21:24.550Z,14.00
2023-01-10T11:24:03.830Z,14.50
2023-01-10T11:26:41.944Z,17.40
2023-01-10T11:29:41.620Z,14.60
2023-01-10T11:32:21.566Z,14.33
2023-01-10T11:35:07.617Z,17.93
2023-01-10T11:37:42.672Z,16.60
2023-01-10T11:40:34.741Z,14.90
2023-01-10T11:43:24.055Z,17.50
2023-01-10T11:46:11.672Z,16.23
2023-01-10T11:49:09.014Z,16.63
2023-01-10T11:51:49.005Z,18.30
2023-01-10T11:54:30.787Z,17.57
2023-01-10T11:57:15.651Z,20.93
2023-01-10T12:00:04.618Z,13.13
2023-01-10T12:02:48.640Z,15.90
2023-01-10T12:05:30.613Z,18.87
2023-01-10T12:08:51.614Z,15.63
2023-01-10T12:11:34.312Z,12.30
2023-01-10T12:14:27.452Z,17.17
2023-01-10T12:17:09.483Z,10.03
2023-01-10T12:19:36.159Z,19.47
2023-01-10T12:22:13.005Z,18.33
2023-01-10T12:24:43.886Z,14.63
2023-01-10T12:27:20.717Z,16.53
2023-01-10T12:30:07.173Z,20.97
2023-01-10T12:32:55.768Z,15.57
2023-01-10T12:35:50.673Z,15.00
2023-01-10T12:39:02.555Z,14.00
2023-01-10T12:42:22.651Z,15.63
2023-01-10T12:45:41.989Z,11.03
2023-01-10T12:48:33.716Z,17.97
2023-01-10T12:51:10.194Z,19.10
2023-01-10T12:53:51.704Z,18.63
2023-01-10T12:56:23.715Z,14.13
2023-01-10T12:59:01.825Z,14.07
2023-01-10T13:01:35.915Z,17.13
2023-01-10T13:04:24.851Z,16.97
2023-01-10T13:06:53.035Z,15.97
2023-01-10T13:09:29.730Z,11.00
2023-01-10T13:12:22.833Z,18.13
2023-01-10T13:15:12.593Z,14.37
2023-01-10T13:17:48.278Z,13.53
2023-01-10T13:20:30.689Z,16.37
2023-01-10T13:23:01.164Z,12.67
2023-01-10T13:25:44.754Z,11.27
2023-01-10T13:28:31.757Z,18.00
2023-01-10T13:31:06.732Z,13.37
2023-01-10T13:33:47.640Z,13.32
2023-01-10T13:36:29.086Z,13.93
2023-01-10T13:39:06.169Z,14.83
2023-01-10T13:42:36.661Z,14.27
2023-01-10T13:45:13.702Z,11.70
2023-01-10T13:47:47.674Z,9.10
2023-01-10T13:50:33.741Z,13.13
2023-01-10T13:53:14.646Z,13.57
2023-01-10T13:55:46.847Z,14.43
2023-01-10T13:58:19.850Z,15.17
2023-01-10T14:01:10.712Z,12.63
2023-01-10T14:04:07.708Z,11.93
2023-01-10T14:06:45.217Z,16.70
2023-01-10T14:09:19.816Z,9.97
2023-01-10T14:11:54.071Z,13.63
2023-01-10T14:14:48.635Z,14.57
2023-01-10T14:17:22.966Z,12.37
2023-01-10T14:20:07.647Z,11.30
2023-01-10T14:22:39.843Z,11.38
2023-01-10T14:25:25.687Z,7.85
2023-01-10T14:28:00.804Z,11.40
2023-01-10T14:30:40.620Z,12.82
2023-01-10T14:33:20.615Z,9.38
2023-01-10T14:35:58.691Z,13.40
2023-01-10T14:38:35.853Z,10.95
2023-01-10T14:41:06.174Z,8.90
2023-01-10T14:43:51.676Z,13.95
2023-01-10T14:46:36.027Z,13.07
2023-01-10T14:49:25.701Z,10.43
2023-01-10T14:52:08.115Z,13.20
2023-01-10T14:54:41.731Z,9.40
2023-01-10T14:57:24.200Z,13.38
2023-01-10T14:59:57.621Z,14.43
2023-01-10T15:02:26.943Z,9.33
2023-01-10T15:05:06.702Z,15.57
2023-01-10T15:07:33.710Z,11.77
2023-01-10T15:10:10.653Z,11.93
2023-01-10T15:12:38.078Z,7.63
2023-01-10T15:15:24.668Z,11.13
2023-01-10T15:17:51.837Z,12.85
2023-01-10T15:20:27.687Z,13.63
2023-01-10T15:23:05.045Z,8.88
2023-01-10T15:25:44.921Z,9.50
2023-01-10T15:28:26.739Z,11.75
2023-01-10T15:31:05.715Z,10.80
2023-01-10T15:33:41.732Z,12.77
2023-01-10T15:36:25.600Z,13.20
2023-01-10T15:38:54.507Z,12.20
2023-01-10T15:41:31.055Z,14.13
2023-01-10T15:44:38.304Z,9.77
2023-01-10T15:47:13.784Z,10.82
2023-01-10T15:49:46.795Z,10.10
2023-01-10T15:52:23.923Z,11.82
2023-01-10T15:54:57.748Z,10.27
2023-01-10T15:57:39.750Z,14.65
2023-01-10T16:00:19.848Z,10.63
2023-01-10T16:02:55.082Z,7.68
2023-01-10T16:05:22.999Z,9.93
2023-01-10T16:07:56.707Z,9.77
2023-01-10T16:10:26.866Z,11.57
2023-01-10T16:13:33.810Z,6.95
2023-01-10T16:16:19.280Z,7.45
2023-01-10T16:18:46.266Z,10.63
2023-01-10T16:21:22.096Z,11.93
2023-01-10T16:23:49.939Z,11.30
2023-01-10T16:26:24.748Z,9.50
2023-01-10T16:28:57.680Z,8.10
2023-01-10T16:31:32.970Z,12.80
2023-01-10T16:34:06.757Z,9.73
2023-01-10T16:36:39.834Z,9.25
2023-01-10T16:39:13.303Z,10.27
2023-01-10T16:42:05.981Z,7.78
2023-01-10T16:44:34.700Z,9.02
2023-01-10T16:47:08.809Z,14.90
2023-01-10T16:49:35.620Z,6.88
2023-01-10T16:52:03.692Z,5.38
2023-01-10T16:54:37.815Z,6.97
2023-01-10T16:57:04.752Z,8.35
2023-01-10T16:59:37.791Z,10.38
2023-01-10T17:02:16.856Z,8.65
2023-01-10T17:04:49.758Z,6.72
2023-01-10T17:07:16.467Z,8.02
2023-01-10T17:09:49.794Z,8.03
2023-01-10T17:12:19.520Z,6.23
2023-01-10T17:14:59.713Z,7.90
2023-01-10T17:17:33.862Z,9.77
2023-01-10T17:20:06.763Z,5.80
2023-01-10T17:22:33.652Z,8.07
2023-01-10T17:25:06.789Z,6.83
2023-01-10T17:27:40.748Z,6.87
2023-01-10T17:30:15.866Z,6.27
2023-01-10T17:32:48.809Z,9.73
2023-01-10T17:35:15.644Z,12.47
2023-01-10T17:37:49.742Z,6.57
2023-01-10T17:40:16.598Z,9.33
2023-01-10T17:42:49.811Z,8.40
2023-01-10T17:45:16.698Z,8.33
2023-01-10T17:47:49.909Z,9.57
2023-01-10T17:50:16.650Z,7.77
2023-01-10T17:52:49.812Z,16.13
2023-01-10T17:55:16.621Z,9.03
2023-01-10T17:57:50.075Z,9.87
2023-01-10T18:00:24.758Z,12.57
2023-01-10T18:02:51.537Z,10.00
2023-01-10T18:05:24.854Z,7.53
2023-01-10T18:07:51.904Z,8.90
2023-01-10T18:10:25.775Z,8.40
2023-01-10T18:12:52.537Z,6.37
2023-01-10T18:15:32.801Z,8.30
2023-01-10T18:17:59.807Z,9.50
2023-01-10T18:20:34.785Z,11.13
2023-01-10T18:23:20.492Z,13.07
2023-01-10T18:26:10.268Z,9.87
2023-01-10T18:28:46.422Z,7.07
2023-01-10T18:31:28.490Z,10.13
2023-01-10T18:33:56.554Z,8.60
2023-01-10T18:36:38.956Z,5.57
2023-01-10T18:39:12.780Z,10.00
2023-01-10T18:41:48.334Z,6.20
2023-01-10T18:44:15.342Z,8.00
2023-01-10T18:46:48.819Z,5.23
2023-01-10T18:49:23.867Z,6.50
2023-01-10T18:51:50.919Z,5.83
2023-01-10T18:54:30.161Z,6.17
2023-01-10T18:57:05.784Z,4.90
2023-01-10T18:59:32.625Z,5.37
2023-01-10T19:02:05.941Z,6.70
2023-01-10T19:04:40.875Z,7.33
2023-01-10T19:07:14.889Z,5.80
2023-01-10T19:09:51.095Z,5.97
2023-01-10T19:12:17.880Z,5.73
2023-01-10T19:14:57.828Z,6.70
2023-01-10T19:17:31.162Z,4.93
2023-01-10T19:20:04.818Z,4.70
2023-01-10T19:22:31.573Z,4.87
2023-01-10T19:25:04.861Z,4.40
2023-01-10T19:27:31.561Z,4.63
2023-01-10T19:30:04.818Z,2.90
2023-01-10T19:32:34.712Z,3.00
2023-01-10T19:35:01.687Z,3.40
2023-01-10T19:37:34.864Z,4.43
2023-01-10T19:40:01.750Z,6.83
2023-01-10T19:42:34.957Z,4.87
2023-01-10T19:45:01.733Z,7.10
2023-01-10T19:47:36.046Z,8.00
2023-01-10T19:50:02.827Z,3.90
2023-01-10T19:52:29.650Z,6.30
2023-01-10T19:55:02.787Z,6.47
2023-01-10T19:57:29.623Z,4.40
2023-01-10T20:00:03.879Z,5.43
2023-01-10T20:02:30.748Z,7.70
2023-01-10T20:05:03.772Z,5.60
2023-01-10T20:07:30.511Z,5.37
2023-01-10T20:09:58.076Z,5.83
2023-01-10T20:12:31.856Z,5.50
2023-01-10T20:15:05.624Z,6.80
2023-01-10T20:17:39.847Z,5.40
2023-01-10T20:20:06.996Z,5.80
2023-01-10T20:22:39.903Z,4.90
2023-01-10T20:25:13.905Z,4.57
2023-01-10T20:27:46.944Z,4.87
2023-01-10T20:30:18.846Z,5.53
2023-01-10T20:32:54.324Z,5.45
2023-01-10T20:35:22.212Z,7.23
2023-01-10T20:37:55.731Z,6.88
2023-01-10T20:40:25.154Z,5.17
2023-01-10T20:43:01.813Z,5.10
2023-01-10T20:45:28.525Z,4.83
2023-01-10T20:48:01.880Z,3.80
2023-01-10T20:50:28.530Z,4.65
2023-01-10T20:53:01.896Z,4.50
2023-01-10T20:55:28.793Z,3.72
2023-01-10T20:58:01.882Z,10.63
2023-01-10T21:00:34.809Z,13.68
2023-01-10T21:03:18.748Z,4.90
2023-01-10T21:06:01.116Z,3.95
2023-01-10T21:08:29.855Z,4.22
2023-01-10T21:11:04.981Z,5.32
2023-01-10T21:13:32.381Z,3.97
2023-01-10T21:16:15.921Z,3.67
2023-01-10T21:18:44.592Z,5.40
2023-01-10T21:21:21.045Z,4.75
2023-01-10T21:23:53.848Z,5.80
2023-01-10T21:26:26.932Z,4.47
2023-01-10T21:28:59.851Z,5.00
2023-01-10T21:31:27.223Z,4.93
2023-01-10T21:34:01.082Z,5.27
2023-01-10T21:36:36.007Z,3.50
2023-01-10T21:39:08.863Z,4.35
2023-01-10T21:42:00.257Z,4.63
2023-01-10T21:44:34.150Z,3.85
2023-01-10T21:47:08.877Z,6.55
2023-01-10T21:49:41.836Z,3.83
2023-01-10T21:52:08.594Z,5.95
2023-01-10T21:54:44.040Z,3.85
2023-01-10T21:57:10.877Z,4.85
2023-01-10T21:59:47.835Z,4.93
2023-01-10T22:02:16.925Z,4.57
2023-01-10T22:04:58.874Z,2.88
2023-01-10T22:07:32.420Z,3.33
2023-01-10T22:10:05.875Z,4.70
2023-01-10T22:12:32.760Z,4.13
2023-01-10T22:15:05.895Z,5.15
2023-01-10T22:17:34.024Z,4.20
2023-01-10T22:20:06.892Z,3.97
2023-01-10T22:22:33.611Z,3.28
2023-01-10T22:25:06.997Z,4.00
2023-01-10T22:27:39.830Z,4.10
2023-01-10T22:30:07.262Z,4.72
2023-01-10T22:32:40.902Z,3.60
2023-01-10T22:35:08.298Z,3.38
2023-01-10T22:37:41.919Z,4.90
2023-01-10T22:40:09.409Z,4.60
2023-01-10T22:42:47.185Z,3.03
2023-01-10T22:45:17.049Z,4.20
2023-01-10T22:47:50.899Z,3.70
2023-01-10T22:50:18.425Z,4.13
2023-01-10T22:52:54.904Z,4.65
2023-01-10T22:55:21.701Z,4.43
2023-01-10T22:57:54.891Z,6.15
2023-01-10T23:00:28.868Z,3.45
2023-01-10T23:03:01.916Z,4.82
2023-01-10T23:05:36.078Z,3.50
2023-01-10T23:08:03.187Z,4.20
2023-01-10T23:10:36.838Z,4.28
2023-01-10T23:13:05.178Z,5.03
2023-01-10T23:15:38.844Z,3.35
2023-01-10T23:18:05.869Z,4.60
2023-01-10T23:20:42.116Z,4.15
2023-01-10T23:23:08.950Z,3.80
2023-01-10T23:25:42.959Z,3.85
2023-01-10T23:28:09.640Z,4.35
2023-01-10T23:30:46.532Z,4.45
2023-01-10T23:33:13.353Z,3.40
2023-01-10T23:35:47.334Z,2.88
2023-01-10T23:38:20.844Z,4.05
2023-01-10T23:40:50.629Z,5.47
2023-01-10T23:43:23.889Z,4.20
2023-01-10T23:45:59.019Z,4.57
2023-01-10T23:48:25.801Z,3.80
2023-01-10T23:51:02.644Z,4.13
2023-01-10T23:53:35.910Z,4.43
2023-01-10T23:56:16.816Z,3.88
2023-01-10T23:58:49.912Z,4.07
